sensor_id;sensor_type;location;lat;lon;timestamp;P1;durP1;ratioP1;P2;durP2;ratioP2
49910;SDS011;35803;53.096;5.844;2023-06-19T06:46:09;38.15;;;17.88;;
49910;SDS011;35803;53.096;5.844;2023-06-19T06:48:55;38.35;;;17.58;;
49910;SDS011;35803;53.096;5.844;2023-06-19T06:51:43;38.25;;;17.42;;
49910;SDS011;35803;53.096;5.844;2023-06-19T06:54:29;39.40;;;18.92;;
49910;SDS011;35803;53.096;5.844;2023-06-19T06:57:14;37.30;;;18.25;;
49910;SDS011;35803;53.096;5.844;2023-06-19T07:00:00;34.92;;;17.38;;
49910;SDS011;35803;53.096;5.844;2023-06-19T07:02:49;34.13;;;16.77;;
49910;SDS011;35803;53.096;5.844;2023-06-19T07:05:36;35.08;;;16.45;;
49910;SDS011;35803;53.096;5.844;2023-06-19T07:08:29;32.47;;;15.88;;
49910;SDS011;35803;53.096;5.844;2023-06-19T07:11:15;33.35;;;15.93;;
49910;SDS011;35803;53.096;5.844;2023-06-19T07:14:01;29.85;;;15.45;;
49910;SDS011;35803;53.096;5.844;2023-06-19T07:16:49;29.65;;;15.43;;
49910;SDS011;35803;53.096;5.844;2023-06-19T07:19:35;30.20;;;15.00;;
49910;SDS011;35803;53.096;5.844;2023-06-19T07:22:21;29.45;;;15.25;;
49910;SDS011;35803;53.096;5.844;2023-06-19T07:25:06;26.23;;;13.45;;
49910;SDS011;35803;53.096;5.844;2023-06-19T07:27:55;27.92;;;14.43;;
49910;SDS011;35803;53.096;5.844;2023-06-19T07:30:41;24.77;;;14.40;;
49910;SDS011;35803;53.096;5.844;2023-06-19T07:33:26;26.67;;;13.98;;
49910;SDS011;35803;53.096;5.844;2023-06-19T07:36:15;24.85;;;12.68;;
49910;SDS011;35803;53.096;5.844;2023-06-19T07:39:01;21.63;;;12.57;;
49910;SDS011;35803;53.096;5.844;2023-06-19T07:41:47;21.55;;;12.05;;
49910;SDS011;35803;53.096;5.844;2023-06-19T07:44:34;20.60;;;11.98;;
49910;SDS011;35803;53.096;5.844;2023-06-19T07:47:20;18.85;;;10.30;;
49910;SDS011;35803;53.096;5.844;2023-06-19T07:50:06;18.25;;;9.07;;
49910;SDS011;35803;53.096;5.844;2023-06-19T07:52:51;11.02;;;8.13;;
49910;SDS011;35803;53.096;5.844;2023-06-19T07:55:37;9.40;;;7.28;;
49910;SDS011;35803;53.096;5.844;2023-06-19T07:58:22;12.52;;;8.70;;
49910;SDS011;35803;53.096;5.844;2023-06-19T08:01:17;13.98;;;8.55;;
49910;SDS011;35803;53.096;5.844;2023-06-19T08:04:05;13.93;;;8.27;;
49910;SDS011;35803;53.096;5.844;2023-06-19T08:06:51;12.90;;;8.45;;
49910;SDS011;35803;53.096;5.844;2023-06-19T08:09:37;13.02;;;8.48;;
49910;SDS011;35803;53.096;5.844;2023-06-19T08:12:22;13.68;;;9.02;;
49910;SDS011;35803;53.096;5.844;2023-06-19T08:15:08;12.50;;;8.55;;
49910;SDS011;35803;53.096;5.844;2023-06-19T08:17:54;13.48;;;8.18;;
49910;SDS011;35803;53.096;5.844;2023-06-19T08:20:40;13.35;;;9.05;;
49910;SDS011;35803;53.096;5.844;2023-06-19T08:23:25;12.30;;;8.85;;
49910;SDS011;35803;53.096;5.844;2023-06-19T08:26:13;11.38;;;8.88;;
49910;SDS011;35803;53.096;5.844;2023-06-19T08:28:58;14.48;;;9.18;;
49910;SDS011;35803;53.096;5.844;2023-06-19T08:31:44;13.77;;;9.35;;
49910;SDS011;35803;53.096;5.844;2023-06-19T08:34:29;16.27;;;10.02;;
49910;SDS011;35803;53.096;5.844;2023-06-19T08:37:15;13.85;;;10.00;;
49910;SDS011;35803;53.096;5.844;2023-06-19T08:40:05;19.92;;;10.15;;
49910;SDS011;35803;53.096;5.844;2023-06-19T08:42:54;16.45;;;10.70;;
49910;SDS011;35803;53.096;5.844;2023-06-19T08:45:41;18.88;;;10.73;;
49910;SDS011;35803;53.096;5.844;2023-06-19T08:48:26;16.50;;;10.50;;
49910;SDS011;35803;53.096;5.844;2023-06-19T08:51:15;14.10;;;9.63;;
49910;SDS011;35803;53.096;5.844;2023-06-19T08:54:01;15.00;;;9.80;;
49910;SDS011;35803;53.096;5.844;2023-06-19T08:56:53;16.02;;;9.88;;
49910;SDS011;35803;53.096;5.844;2023-06-19T08:59:39;16.25;;;9.88;;
49910;SDS011;35803;53.096;5.844;2023-06-19T09:02:25;16.75;;;10.02;;
49910;SDS011;35803;53.096;5.844;2023-06-19T09:05:30;17.45;;;9.70;;
49910;SDS011;35803;53.096;5.844;2023-06-19T09:08:16;15.25;;;10.00;;
49910;SDS011;35803;53.096;5.844;2023-06-19T09:11:03;17.13;;;10.23;;
49910;SDS011;35803;53.096;5.844;2023-06-19T09:13:55;13.77;;;9.15;;
49910;SDS011;35803;53.096;5.844;2023-06-19T09:16:43;15.23;;;9.30;;
49910;SDS011;35803;53.096;5.844;2023-06-19T09:19:28;14.02;;;9.77;;
49910;SDS011;35803;53.096;5.844;2023-06-19T09:22:15;14.68;;;9.85;;
49910;SDS011;35803;53.096;5.844;2023-06-19T09:25:03;17.30;;;10.43;;
49910;SDS011;35803;53.096;5.844;2023-06-19T09:27:49;14.57;;;9.30;;
49910;SDS011;35803;53.096;5.844;2023-06-19T09:30:34;16.63;;;9.27;;
49910;SDS011;35803;53.096;5.844;2023-06-19T09:33:20;13.82;;;10.02;;
49910;SDS011;35803;53.096;5.844;2023-06-19T09:36:05;17.50;;;11.00;;
49910;SDS011;35803;53.096;5.844;2023-06-19T09:38:54;16.95;;;10.18;;
49910;SDS011;35803;53.096;5.844;2023-06-19T09:41:41;17.70;;;11.18;;
49910;SDS011;35803;53.096;5.844;2023-06-19T09:44:27;18.48;;;11.07;;
49910;SDS011;35803;53.096;5.844;2023-06-19T09:47:21;17.27;;;10.43;;
49910;SDS011;35803;53.096;5.844;2023-06-19T09:50:09;14.82;;;9.98;;
49910;SDS011;35803;53.096;5.844;2023-06-19T09:52:57;15.57;;;10.60;;
49910;SDS011;35803;53.096;5.844;2023-06-19T09:55:49;17.25;;;10.70;;
49910;SDS011;35803;53.096;5.844;2023-06-19T09:58:37;16.23;;;11.20;;
49910;SDS011;35803;53.096;5.844;2023-06-19T10:01:23;19.15;;;11.63;;
49910;SDS011;35803;53.096;5.844;2023-06-19T10:04:09;14.55;;;9.93;;
49910;SDS011;35803;53.096;5.844;2023-06-19T10:06:56;16.33;;;10.50;;
49910;SDS011;35803;53.096;5.844;2023-06-19T10:10:02;17.20;;;11.20;;
49910;SDS011;35803;53.096;5.844;2023-06-19T10:15:40;19.95;;;11.68;;
49910;SDS011;35803;53.096;5.844;2023-06-19T10:18:31;19.60;;;11.32;;
49910;SDS011;35803;53.096;5.844;2023-06-19T10:21:20;14.02;;;9.90;;
49910;SDS011;35803;53.096;5.844;2023-06-19T10:24:13;18.52;;;11.95;;
49910;SDS011;35803;53.096;5.844;2023-06-19T10:27:00;18.55;;;12.48;;
49910;SDS011;35803;53.096;5.844;2023-06-19T10:29:51;20.45;;;13.02;;
49910;SDS011;35803;53.096;5.844;2023-06-19T10:32:38;17.92;;;11.43;;
49910;SDS011;35803;53.096;5.844;2023-06-19T10:35:24;18.67;;;11.18;;
49910;SDS011;35803;53.096;5.844;2023-06-19T10:38:09;15.63;;;10.02;;
49910;SDS011;35803;53.096;5.844;2023-06-19T10:40:55;13.32;;;9.32;;
49910;SDS011;35803;53.096;5.844;2023-06-19T10:43:54;14.65;;;10.38;;
49910;SDS011;35803;53.096;5.844;2023-06-19T10:46:41;16.90;;;10.25;;
49910;SDS011;35803;53.096;5.844;2023-06-19T10:49:26;16.77;;;11.02;;
49910;SDS011;35803;53.096;5.844;2023-06-19T10:52:15;16.85;;;11.48;;
49910;SDS011;35803;53.096;5.844;2023-06-19T10:55:01;21.52;;;12.80;;
49910;SDS011;35803;53.096;5.844;2023-06-19T10:57:49;21.60;;;13.23;;
49910;SDS011;35803;53.096;5.844;2023-06-19T11:00:35;20.88;;;12.55;;
49910;SDS011;35803;53.096;5.844;2023-06-19T11:03:20;20.10;;;12.57;;
49910;SDS011;35803;53.096;5.844;2023-06-19T11:06:06;18.05;;;11.93;;
49910;SDS011;35803;53.096;5.844;2023-06-19T11:08:51;21.35;;;12.38;;
49910;SDS011;35803;53.096;5.844;2023-06-19T11:11:38;19.20;;;12.68;;
49910;SDS011;35803;53.096;5.844;2023-06-19T11:14:28;17.98;;;11.48;;
49910;SDS011;35803;53.096;5.844;2023-06-19T11:17:14;19.38;;;12.02;;
49910;SDS011;35803;53.096;5.844;2023-06-19T11:20:00;17.63;;;12.13;;
49910;SDS011;35803;53.096;5.844;2023-06-19T11:22:46;20.13;;;12.07;;
49910;SDS011;35803;53.096;5.844;2023-06-19T11:25:35;17.13;;;12.40;;
49910;SDS011;35803;53.096;5.844;2023-06-19T11:28:21;17.35;;;12.05;;
49910;SDS011;35803;53.096;5.844;2023-06-19T11:31:07;16.02;;;11.85;;
49910;SDS011;35803;53.096;5.844;2023-06-19T11:33:58;16.33;;;11.20;;
49910;SDS011;35803;53.096;5.844;2023-06-19T11:39:32;13.73;;;10.10;;
49910;SDS011;35803;53.096;5.844;2023-06-19T11:42:18;13.95;;;9.25;;
49910;SDS011;35803;53.096;5.844;2023-06-19T11:45:04;15.32;;;10.25;;
49910;SDS011;35803;53.096;5.844;2023-06-19T11:47:53;11.55;;;8.20;;
49910;SDS011;35803;53.096;5.844;2023-06-19T11:50:39;9.60;;;7.15;;
49910;SDS011;35803;53.096;5.844;2023-06-19T11:53:25;12.55;;;8.27;;
49910;SDS011;35803;53.096;5.844;2023-06-19T11:56:10;12.73;;;8.40;;
49910;SDS011;35803;53.096;5.844;2023-06-19T11:58:56;9.82;;;6.82;;
49910;SDS011;35803;53.096;5.844;2023-06-19T12:01:41;10.32;;;6.60;;
49910;SDS011;35803;53.096;5.844;2023-06-19T12:04:27;11.02;;;7.60;;
49910;SDS011;35803;53.096;5.844;2023-06-19T12:07:13;10.98;;;7.45;;
49910;SDS011;35803;53.096;5.844;2023-06-19T12:09:58;11.60;;;7.43;;
49910;SDS011;35803;53.096;5.844;2023-06-19T12:12:44;11.90;;;7.63;;
49910;SDS011;35803;53.096;5.844;2023-06-19T12:15:29;9.68;;;6.28;;
49910;SDS011;35803;53.096;5.844;2023-06-19T12:18:17;12.45;;;7.95;;
49910;SDS011;35803;53.096;5.844;2023-06-19T12:21:04;10.88;;;7.40;;
49910;SDS011;35803;53.096;5.844;2023-06-19T12:23:49;9.25;;;6.60;;
49910;SDS011;35803;53.096;5.844;2023-06-19T12:26:35;9.75;;;6.50;;
49910;SDS011;35803;53.096;5.844;2023-06-19T12:29:24;9.27;;;6.68;;
49910;SDS011;35803;53.096;5.844;2023-06-19T12:32:11;7.28;;;5.72;;
49910;SDS011;35803;53.096;5.844;2023-06-19T12:34:56;7.38;;;6.10;;
49910;SDS011;35803;53.096;5.844;2023-06-19T12:37:42;8.73;;;6.30;;
49910;SDS011;35803;53.096;5.844;2023-06-19T12:40:31;9.57;;;6.20;;
49910;SDS011;35803;53.096;5.844;2023-06-19T12:43:17;7.20;;;5.78;;
49910;SDS011;35803;53.096;5.844;2023-06-19T12:46:03;7.32;;;5.68;;
49910;SDS011;35803;53.096;5.844;2023-06-19T12:48:48;9.32;;;6.43;;
49910;SDS011;35803;53.096;5.844;2023-06-19T12:51:35;10.75;;;7.18;;
49910;SDS011;35803;53.096;5.844;2023-06-19T12:54:21;9.07;;;6.82;;
49910;SDS011;35803;53.096;5.844;2023-06-19T12:57:06;10.10;;;7.32;;
49910;SDS011;35803;53.096;5.844;2023-06-19T12:59:52;8.90;;;6.95;;
49910;SDS011;35803;53.096;5.844;2023-06-19T13:02:47;9.52;;;6.38;;
49910;SDS011;35803;53.096;5.844;2023-06-19T13:05:33;9.63;;;5.82;;
49910;SDS011;35803;53.096;5.844;2023-06-19T13:08:18;10.90;;;6.78;;
49910;SDS011;35803;53.096;5.844;2023-06-19T13:11:04;8.57;;;6.28;;
49910;SDS011;35803;53.096;5.844;2023-06-19T13:13:49;9.35;;;6.60;;
49910;SDS011;35803;53.096;5.844;2023-06-19T13:16:35;9.60;;;7.20;;
49910;SDS011;35803;53.096;5.844;2023-06-19T13:19:21;12.90;;;7.57;;
49910;SDS011;35803;53.096;5.844;2023-06-19T13:22:06;10.18;;;6.68;;
49910;SDS011;35803;53.096;5.844;2023-06-19T13:24:52;8.55;;;6.53;;
49910;SDS011;35803;53.096;5.844;2023-06-19T13:27:37;7.70;;;6.20;;
49910;SDS011;35803;53.096;5.844;2023-06-19T13:30:22;9.23;;;6.05;;
49910;SDS011;35803;53.096;5.844;2023-06-19T13:33:08;8.02;;;5.65;;
49910;SDS011;35803;53.096;5.844;2023-06-19T13:35:54;8.68;;;6.45;;
49910;SDS011;35803;53.096;5.844;2023-06-19T13:38:40;7.80;;;5.40;;
49910;SDS011;35803;53.096;5.844;2023-06-19T13:41:25;7.43;;;5.00;;
49910;SDS011;35803;53.096;5.844;2023-06-19T13:44:12;7.70;;;4.78;;
49910;SDS011;35803;53.096;5.844;2023-06-19T13:46:57;5.70;;;4.72;;
49910;SDS011;35803;53.096;5.844;2023-06-19T13:49:43;6.35;;;5.03;;
49910;SDS011;35803;53.096;5.844;2023-06-19T13:52:28;6.50;;;4.80;;
49910;SDS011;35803;53.096;5.844;2023-06-19T13:55:14;8.00;;;5.30;;
49910;SDS011;35803;53.096;5.844;2023-06-19T13:58:00;4.72;;;4.00;;
49910;SDS011;35803;53.096;5.844;2023-06-19T14:00:51;5.95;;;4.80;;
49910;SDS011;35803;53.096;5.844;2023-06-19T14:03:37;4.90;;;3.88;;
49910;SDS011;35803;53.096;5.844;2023-06-19T14:06:26;5.25;;;4.10;;
49910;SDS011;35803;53.096;5.844;2023-06-19T14:09:12;5.57;;;4.43;;
49910;SDS011;35803;53.096;5.844;2023-06-19T14:11:57;5.00;;;4.05;;
49910;SDS011;35803;53.096;5.844;2023-06-19T14:14:44;4.25;;;3.65;;
49910;SDS011;35803;53.096;5.844;2023-06-19T14:17:29;4.65;;;3.97;;
49910;SDS011;35803;53.096;5.844;2023-06-19T14:20:15;5.70;;;4.75;;
49910;SDS011;35803;53.096;5.844;2023-06-19T14:23:01;5.57;;;4.20;;
49910;SDS011;35803;53.096;5.844;2023-06-19T14:25:49;5.15;;;4.00;;
49910;SDS011;35803;53.096;5.844;2023-06-19T14:28:36;7.28;;;4.50;;
49910;SDS011;35803;53.096;5.844;2023-06-19T14:31:23;6.25;;;4.13;;
49910;SDS011;35803;53.096;5.844;2023-06-19T14:34:09;5.82;;;4.63;;
49910;SDS011;35803;53.096;5.844;2023-06-19T14:36:54;5.78;;;4.70;;
49910;SDS011;35803;53.096;5.844;2023-06-19T14:39:40;6.38;;;4.20;;
49910;SDS011;35803;53.096;5.844;2023-06-19T14:42:25;6.72;;;4.15;;
49910;SDS011;35803;53.096;5.844;2023-06-19T14:45:11;5.55;;;3.92;;
49910;SDS011;35803;53.096;5.844;2023-06-19T14:47:56;5.30;;;3.67;;
49910;SDS011;35803;53.096;5.844;2023-06-19T14:50:45;5.78;;;3.75;;
49910;SDS011;35803;53.096;5.844;2023-06-19T14:53:30;6.85;;;3.83;;
49910;SDS011;35803;53.096;5.844;2023-06-19T14:56:25;4.30;;;3.17;;
49910;SDS011;35803;53.096;5.844;2023-06-19T14:59:11;4.60;;;2.85;;
49910;SDS011;35803;53.096;5.844;2023-06-19T15:01:56;5.25;;;3.60;;
49910;SDS011;35803;53.096;5.844;2023-06-19T15:04:42;4.78;;;3.45;;
49910;SDS011;35803;53.096;5.844;2023-06-19T15:07:28;4.38;;;3.20;;
49910;SDS011;35803;53.096;5.844;2023-06-19T15:10:13;4.70;;;3.80;;
49910;SDS011;35803;53.096;5.844;2023-06-19T15:12:59;4.90;;;3.53;;
49910;SDS011;35803;53.096;5.844;2023-06-19T15:15:47;5.68;;;3.65;;
49910;SDS011;35803;53.096;5.844;2023-06-19T15:18:33;4.72;;;3.35;;
49910;SDS011;35803;53.096;5.844;2023-06-19T15:21:18;6.07;;;3.58;;
49910;SDS011;35803;53.096;5.844;2023-06-19T15:24:04;5.13;;;3.55;;
49910;SDS011;35803;53.096;5.844;2023-06-19T15:26:50;5.78;;;3.50;;
49910;SDS011;35803;53.096;5.844;2023-06-19T15:29:35;4.68;;;3.00;;
49910;SDS011;35803;53.096;5.844;2023-06-19T15:32:21;5.07;;;3.50;;
49910;SDS011;35803;53.096;5.844;2023-06-19T15:35:06;5.50;;;3.28;;
49910;SDS011;35803;53.096;5.844;2023-06-19T15:37:52;6.10;;;4.00;;
49910;SDS011;35803;53.096;5.844;2023-06-19T15:40:37;4.57;;;3.28;;
49910;SDS011;35803;53.096;5.844;2023-06-19T15:43:23;4.05;;;3.42;;
49910;SDS011;35803;53.096;5.844;2023-06-19T15:46:16;5.05;;;3.65;;
49910;SDS011;35803;53.096;5.844;2023-06-19T15:49:02;4.40;;;2.92;;
49910;SDS011;35803;53.096;5.844;2023-06-19T15:51:48;4.88;;;3.40;;
49910;SDS011;35803;53.096;5.844;2023-06-19T15:54:33;5.40;;;3.03;;
49910;SDS011;35803;53.096;5.844;2023-06-19T15:57:20;4.50;;;3.35;;
49910;SDS011;35803;53.096;5.844;2023-06-19T16:00:05;4.07;;;2.97;;
49910;SDS011;35803;53.096;5.844;2023-06-19T16:02:51;3.78;;;3.17;;
49910;SDS011;35803;53.096;5.844;2023-06-19T16:05:37;4.40;;;3.22;;
49910;SDS011;35803;53.096;5.844;2023-06-19T16:08:22;5.35;;;3.80;;
49910;SDS011;35803;53.096;5.844;2023-06-19T16:11:11;5.75;;;3.60;;
49910;SDS011;35803;53.096;5.844;2023-06-19T16:13:57;5.50;;;3.33;;
49910;SDS011;35803;53.096;5.844;2023-06-19T16:16:42;4.55;;;3.38;;
49910;SDS011;35803;53.096;5.844;2023-06-19T16:19:28;5.57;;;3.45;;
49910;SDS011;35803;53.096;5.844;2023-06-19T16:22:16;7.68;;;3.95;;
49910;SDS011;35803;53.096;5.844;2023-06-19T16:25:01;4.70;;;3.40;;
49910;SDS011;35803;53.096;5.844;2023-06-19T16:27:48;4.25;;;3.50;;
49910;SDS011;35803;53.096;5.844;2023-06-19T16:30:34;4.30;;;3.58;;
49910;SDS011;35803;53.096;5.844;2023-06-19T16:33:19;4.22;;;3.28;;
49910;SDS011;35803;53.096;5.844;2023-06-19T16:36:05;3.90;;;3.20;;
49910;SDS011;35803;53.096;5.844;2023-06-19T16:38:50;6.25;;;3.30;;
49910;SDS011;35803;53.096;5.844;2023-06-19T16:41:36;5.25;;;3.40;;
49910;SDS011;35803;53.096;5.844;2023-06-19T16:44:24;4.22;;;3.22;;
49910;SDS011;35803;53.096;5.844;2023-06-19T16:47:12;7.03;;;3.30;;
49910;SDS011;35803;53.096;5.844;2023-06-19T16:49:58;4.50;;;3.22;;
49910;SDS011;35803;53.096;5.844;2023-06-19T16:52:43;7.30;;;3.60;;
49910;SDS011;35803;53.096;5.844;2023-06-19T16:55:29;4.85;;;3.65;;
49910;SDS011;35803;53.096;5.844;2023-06-19T16:58:14;6.05;;;4.38;;
49910;SDS011;35803;53.096;5.844;2023-06-19T17:01:02;4.30;;;3.17;;
49910;SDS011;35803;53.096;5.844;2023-06-19T17:03:50;5.45;;;4.00;;
49910;SDS011;35803;53.096;5.844;2023-06-19T17:06:35;5.32;;;3.72;;
49910;SDS011;35803;53.096;5.844;2023-06-19T17:09:23;5.40;;;3.85;;
49910;SDS011;35803;53.096;5.844;2023-06-19T17:12:09;6.85;;;3.78;;
49910;SDS011;35803;53.096;5.844;2023-06-19T17:14:55;6.07;;;3.85;;
49910;SDS011;35803;53.096;5.844;2023-06-19T17:17:42;4.50;;;3.60;;
49910;SDS011;35803;53.096;5.844;2023-06-19T17:20:33;7.32;;;4.00;;
49910;SDS011;35803;53.096;5.844;2023-06-19T17:23:18;4.22;;;3.72;;
49910;SDS011;35803;53.096;5.844;2023-06-19T17:26:04;4.65;;;3.33;;
49910;SDS011;35803;53.096;5.844;2023-06-19T17:28:49;4.13;;;3.47;;
49910;SDS011;35803;53.096;5.844;2023-06-19T17:31:35;8.85;;;4.35;;
49910;SDS011;35803;53.096;5.844;2023-06-19T17:34:22;6.22;;;3.97;;
49910;SDS011;35803;53.096;5.844;2023-06-19T17:37:08;5.68;;;4.00;;
49910;SDS011;35803;53.096;5.844;2023-06-19T17:39:53;5.15;;;3.90;;
49910;SDS011;35803;53.096;5.844;2023-06-19T17:42:45;5.20;;;3.63;;
49910;SDS011;35803;53.096;5.844;2023-06-19T17:45:31;7.85;;;4.20;;
49910;SDS011;35803;53.096;5.844;2023-06-19T17:48:19;5.75;;;4.07;;
49910;SDS011;35803;53.096;5.844;2023-06-19T17:51:04;7.50;;;5.57;;
49910;SDS011;35803;53.096;5.844;2023-06-19T17:53:50;6.13;;;4.60;;
49910;SDS011;35803;53.096;5.844;2023-06-19T17:56:36;7.05;;;3.90;;
49910;SDS011;35803;53.096;5.844;2023-06-19T17:59:21;8.77;;;4.25;;
49910;SDS011;35803;53.096;5.844;2023-06-19T18:02:06;6.13;;;4.35;;
49910;SDS011;35803;53.096;5.844;2023-06-19T18:04:52;4.97;;;4.20;;
49910;SDS011;35803;53.096;5.844;2023-06-19T18:07:38;5.95;;;4.13;;
49910;SDS011;35803;53.096;5.844;2023-06-19T18:10:26;6.60;;;4.57;;
49910;SDS011;35803;53.096;5.844;2023-06-19T18:13:12;5.95;;;4.47;;
49910;SDS011;35803;53.096;5.844;2023-06-19T18:15:57;7.05;;;4.75;;
49910;SDS011;35803;53.096;5.844;2023-06-19T18:18:43;8.45;;;5.00;;
49910;SDS011;35803;53.096;5.844;2023-06-19T18:21:28;6.45;;;4.80;;
49910;SDS011;35803;53.096;5.844;2023-06-19T18:24:14;10.13;;;5.93;;
49910;SDS011;35803;53.096;5.844;2023-06-19T18:26:59;7.25;;;5.47;;
49910;SDS011;35803;53.096;5.844;2023-06-19T18:29:45;8.85;;;5.72;;
49910;SDS011;35803;53.096;5.844;2023-06-19T18:32:31;9.52;;;5.32;;
49910;SDS011;35803;53.096;5.844;2023-06-19T18:35:16;7.32;;;5.30;;
49910;SDS011;35803;53.096;5.844;2023-06-19T18:38:11;8.07;;;5.60;;
49910;SDS011;35803;53.096;5.844;2023-06-19T18:40:58;7.80;;;5.35;;
49910;SDS011;35803;53.096;5.844;2023-06-19T18:43:43;8.55;;;5.97;;
49910;SDS011;35803;53.096;5.844;2023-06-19T18:46:29;10.32;;;6.03;;
49910;SDS011;35803;53.096;5.844;2023-06-19T18:49:14;8.93;;;5.50;;
49910;SDS011;35803;53.096;5.844;2023-06-19T18:52:03;8.15;;;5.50;;
49910;SDS011;35803;53.096;5.844;2023-06-19T18:54:51;9.70;;;5.93;;
49910;SDS011;35803;53.096;5.844;2023-06-19T18:57:36;9.30;;;5.68;;
49910;SDS011;35803;53.096;5.844;2023-06-19T19:00:22;8.77;;;6.10;;
49910;SDS011;35803;53.096;5.844;2023-06-19T19:03:10;8.15;;;5.40;;
49910;SDS011;35803;53.096;5.844;2023-06-19T19:05:56;7.13;;;5.18;;
49910;SDS011;35803;53.096;5.844;2023-06-19T19:08:41;8.77;;;5.65;;
49910;SDS011;35803;53.096;5.844;2023-06-19T19:11:30;8.02;;;5.93;;
49910;SDS011;35803;53.096;5.844;2023-06-19T19:14:16;10.50;;;6.78;;
49910;SDS011;35803;53.096;5.844;2023-06-19T19:17:02;14.05;;;7.47;;
49910;SDS011;35803;53.096;5.844;2023-06-19T19:19:48;13.15;;;7.70;;
49910;SDS011;35803;53.096;5.844;2023-06-19T19:22:34;10.85;;;6.97;;
49910;SDS011;35803;53.096;5.844;2023-06-19T19:25:22;10.43;;;7.13;;
49910;SDS011;35803;53.096;5.844;2023-06-19T19:28:07;10.18;;;6.45;;
49910;SDS011;35803;53.096;5.844;2023-06-19T19:30:58;9.88;;;6.05;;
49910;SDS011;35803;53.096;5.844;2023-06-19T19:33:44;8.60;;;5.53;;
49910;SDS011;35803;53.096;5.844;2023-06-19T19:36:29;9.30;;;5.63;;
49910;SDS011;35803;53.096;5.844;2023-06-19T19:39:15;8.57;;;5.68;;
49910;SDS011;35803;53.096;5.844;2023-06-19T19:42:00;11.15;;;6.18;;
49910;SDS011;35803;53.096;5.844;2023-06-19T19:44:46;11.45;;;6.22;;
49910;SDS011;35803;53.096;5.844;2023-06-19T19:47:34;9.25;;;5.97;;
49910;SDS011;35803;53.096;5.844;2023-06-19T19:50:20;9.18;;;5.85;;
49910;SDS011;35803;53.096;5.844;2023-06-19T19:53:06;10.15;;;6.75;;
49910;SDS011;35803;53.096;5.844;2023-06-19T19:55:54;10.80;;;6.82;;
49910;SDS011;35803;53.096;5.844;2023-06-19T19:58:39;13.25;;;7.10;;
49910;SDS011;35803;53.096;5.844;2023-06-19T20:01:28;10.95;;;6.43;;
49910;SDS011;35803;53.096;5.844;2023-06-19T20:04:17;10.15;;;7.03;;
49910;SDS011;35803;53.096;5.844;2023-06-19T20:07:02;10.85;;;7.53;;
49910;SDS011;35803;53.096;5.844;2023-06-19T20:09:49;13.40;;;7.78;;
49910;SDS011;35803;53.096;5.844;2023-06-19T20:12:35;14.13;;;7.68;;
49910;SDS011;35803;53.096;5.844;2023-06-19T20:15:20;10.85;;;6.75;;
49910;SDS011;35803;53.096;5.844;2023-06-19T20:18:06;14.63;;;6.78;;
49910;SDS011;35803;53.096;5.844;2023-06-19T20:20:51;10.35;;;7.18;;
49910;SDS011;35803;53.096;5.844;2023-06-19T20:23:37;12.50;;;7.63;;
49910;SDS011;35803;53.096;5.844;2023-06-19T20:26:22;12.50;;;7.78;;
49910;SDS011;35803;53.096;5.844;2023-06-19T20:29:13;13.50;;;7.82;;
49910;SDS011;35803;53.096;5.844;2023-06-19T20:31:59;11.02;;;7.43;;
49910;SDS011;35803;53.096;5.844;2023-06-19T20:34:44;14.90;;;8.85;;
49910;SDS011;35803;53.096;5.844;2023-06-19T20:37:30;11.82;;;8.18;;
49910;SDS011;35803;53.096;5.844;2023-06-19T20:40:18;13.35;;;7.25;;
49910;SDS011;35803;53.096;5.844;2023-06-19T20:43:03;11.57;;;7.57;;
49910;SDS011;35803;53.096;5.844;2023-06-19T20:45:49;11.30;;;6.95;;
49910;SDS011;35803;53.096;5.844;2023-06-19T20:48:34;13.10;;;7.88;;
49910;SDS011;35803;53.096;5.844;2023-06-19T20:51:28;13.05;;;7.50;;
49910;SDS011;35803;53.096;5.844;2023-06-19T20:54:14;13.27;;;7.95;;
49910;SDS011;35803;53.096;5.844;2023-06-19T20:56:59;12.52;;;7.47;;
49910;SDS011;35803;53.096;5.844;2023-06-19T20:59:45;13.05;;;7.40;;
49910;SDS011;35803;53.096;5.844;2023-06-19T21:02:33;14.82;;;8.13;;
49910;SDS011;35803;53.096;5.844;2023-06-19T21:05:19;12.93;;;8.07;;
49910;SDS011;35803;53.096;5.844;2023-06-19T21:08:04;15.23;;;8.73;;
49910;SDS011;35803;53.096;5.844;2023-06-19T21:10:50;14.70;;;8.57;;
49910;SDS011;35803;53.096;5.844;2023-06-19T21:13:35;14.10;;;8.52;;
49910;SDS011;35803;53.096;5.844;2023-06-19T21:16:21;13.40;;;8.15;;
49910;SDS011;35803;53.096;5.844;2023-06-19T21:19:06;14.82;;;8.48;;
49910;SDS011;35803;53.096;5.844;2023-06-19T21:21:52;13.82;;;8.13;;
49910;SDS011;35803;53.096;5.844;2023-06-19T21:24:37;13.00;;;7.82;;
49910;SDS011;35803;53.096;5.844;2023-06-19T21:27:25;13.75;;;8.70;;
49910;SDS011;35803;53.096;5.844;2023-06-19T21:30:11;14.55;;;7.22;;
49910;SDS011;35803;53.096;5.844;2023-06-19T21:33:00;11.85;;;7.70;;
49910;SDS011;35803;53.096;5.844;2023-06-19T21:35:45;11.68;;;7.85;;
49910;SDS011;35803;53.096;5.844;2023-06-19T21:38:31;11.43;;;7.28;;
49910;SDS011;35803;53.096;5.844;2023-06-19T21:41:22;10.50;;;6.82;;
49910;SDS011;35803;53.096;5.844;2023-06-19T21:44:07;10.52;;;7.00;;
49910;SDS011;35803;53.096;5.844;2023-06-19T21:46:53;12.88;;;7.47;;
49910;SDS011;35803;53.096;5.844;2023-06-19T21:49:39;12.25;;;6.93;;
49910;SDS011;35803;53.096;5.844;2023-06-19T21:52:24;13.43;;;7.90;;
49910;SDS011;35803;53.096;5.844;2023-06-19T21:55:10;12.05;;;8.05;;
49910;SDS011;35803;53.096;5.844;2023-06-19T21:57:56;13.68;;;7.82;;
49910;SDS011;35803;53.096;5.844;2023-06-19T22:00:44;13.20;;;7.57;;
49910;SDS011;35803;53.096;5.844;2023-06-19T22:03:29;12.43;;;7.70;;
49910;SDS011;35803;53.096;5.844;2023-06-19T22:06:18;13.07;;;8.07;;
49910;SDS011;35803;53.096;5.844;2023-06-19T22:09:06;12.40;;;7.32;;
49910;SDS011;35803;53.096;5.844;2023-06-19T22:11:51;15.77;;;8.27;;
49910;SDS011;35803;53.096;5.844;2023-06-19T22:14:39;13.75;;;7.70;;
49910;SDS011;35803;53.096;5.844;2023-06-19T22:17:25;12.32;;;8.57;;
49910;SDS011;35803;53.096;5.844;2023-06-19T22:20:14;11.93;;;7.88;;
49910;SDS011;35803;53.096;5.844;2023-06-19T22:23:02;13.85;;;8.27;;
49910;SDS011;35803;53.096;5.844;2023-06-19T22:25:48;12.88;;;8.07;;
49910;SDS011;35803;53.096;5.844;2023-06-19T22:28:34;14.68;;;7.82;;
49910;SDS011;35803;53.096;5.844;2023-06-19T22:31:19;17.48;;;8.82;;
49910;SDS011;35803;53.096;5.844;2023-06-19T22:34:05;13.25;;;7.82;;
49910;SDS011;35803;53.096;5.844;2023-06-19T22:36:53;13.98;;;7.70;;
49910;SDS011;35803;53.096;5.844;2023-06-19T22:39:38;15.60;;;8.23;;
49910;SDS011;35803;53.096;5.844;2023-06-19T22:42:24;16.52;;;8.75;;
49910;SDS011;35803;53.096;5.844;2023-06-19T22:45:12;15.10;;;8.38;;
49910;SDS011;35803;53.096;5.844;2023-06-19T22:47:58;16.90;;;9.10;;
49910;SDS011;35803;53.096;5.844;2023-06-19T22:50:44;14.93;;;8.55;;
49910;SDS011;35803;53.096;5.844;2023-06-19T22:53:30;13.95;;;8.20;;
49910;SDS011;35803;53.096;5.844;2023-06-19T22:56:19;13.05;;;8.63;;
49910;SDS011;35803;53.096;5.844;2023-06-19T22:59:04;14.98;;;8.50;;
49910;SDS011;35803;53.096;5.844;2023-06-19T23:01:50;11.50;;;8.20;;
49910;SDS011;35803;53.096;5.844;2023-06-19T23:04:35;14.75;;;9.00;;
49910;SDS011;35803;53.096;5.844;2023-06-19T23:07:21;15.32;;;9.30;;
49910;SDS011;35803;53.096;5.844;2023-06-19T23:10:09;17.08;;;9.57;;
49910;SDS011;35803;53.096;5.844;2023-06-19T23:12:55;13.57;;;8.50;;
49910;SDS011;35803;53.096;5.844;2023-06-19T23:15:40;13.55;;;8.63;;
49910;SDS011;35803;53.096;5.844;2023-06-19T23:18:26;15.88;;;8.65;;
49910;SDS011;35803;53.096;5.844;2023-06-19T23:21:14;16.08;;;8.68;;
49910;SDS011;35803;53.096;5.844;2023-06-19T23:24:03;15.00;;;9.13;;